Time;durP1;ratioP1;P1;durP2;ratioP2;P2;SDS_P1;SDS_P2;PMS_P1;PMS_P2;Temp;Humidity;BMP_temperature;BMP_pressure;BME280_temperature;BME280_humidity;BME280_pressure;Samples;Min_cycle;Max_cycle;Signal;HPM_P1;HPM_P2
2023/12/20 00:02:15;;;;;;;50.80;22.30;;;;;;;9.42;59.81;99542.80;108042;1254;72772;-68
2023/12/20 00:04:42;;;;;;;46.90;23.20;;;;;;;9.46;59.65;99540.01;108111;1254;61191;-67
2023/12/20 00:07:09;;;;;;;42.70;20.90;;;;;;;9.41;59.77;99545.46;108092;1257;60412;-68
2023/12/20 00:09:36;;;;;;;37.70;19.30;;;;;;;9.41;59.86;99546.48;108066;1254;74151;-68
2023/12/20 00:12:06;;;;;;;44.90;21.20;;;;;;;9.55;59.46;99542.29;108046;1254;70240;-68
2023/12/20 00:14:32;;;;;;;40.30;20.30;;;;;;;9.53;59.54;99537.45;108072;1254;72699;-67
2023/12/20 00:16:59;;;;;;;42.20;20.00;;;;;;;9.54;59.39;99529.36;108029;1255;59718;-68
2023/12/20 00:19:26;;;;;;;42.80;20.10;;;;;;;9.54;59.49;99518.82;108080;1254;60643;-68
2023/12/20 00:21:53;;;;;;;36.70;17.20;;;;;;;9.53;59.47;99516.75;108128;1254;73854;-67
2023/12/20 00:24:20;;;;;;;42.40;21.10;;;;;;;9.50;59.44;99512.17;108091;1254;70224;-69
2023/12/20 00:26:47;;;;;;;44.30;20.40;;;;;;;9.48;59.43;99507.17;108080;1254;72846;-69
2023/12/20 00:29:14;;;;;;;49.40;21.50;;;;;;;9.47;58.99;99500.19;108082;1255;61186;-68
2023/12/20 00:31:40;;;;;;;47.30;21.50;;;;;;;9.50;58.89;99493.95;108017;1254;60409;-68
2023/12/20 00:34:07;;;;;;;45.60;21.70;;;;;;;9.54;58.66;99486.60;108053;1254;72299;-69
2023/12/20 00:36:35;;;;;;;43.90;20.40;;;;;;;9.60;58.41;99474.73;107998;1259;69175;-68
2023/12/20 00:39:02;;;;;;;46.80;21.30;;;;;;;9.61;58.26;99477.00;107952;1260;72360;-67
2023/12/20 00:41:29;;;;;;;53.40;23.00;;;;;;;9.62;58.24;99464.16;107980;1254;61170;-67
2023/12/20 00:43:56;;;;;;;60.20;26.10;;;;;;;9.64;58.25;99454.27;107992;1259;60318;-69
2023/12/20 00:46:22;;;;;;;66.20;26.80;;;;;;;9.61;58.21;99449.13;108037;1258;74431;-69
2023/12/20 00:48:49;;;;;;;79.90;32.40;;;;;;;9.63;58.08;99443.25;108010;1254;70290;-67
2023/12/20 00:51:16;;;;;;;75.10;29.50;;;;;;;9.61;58.05;99438.27;108076;1255;73177;-67
2023/12/20 00:53:43;;;;;;;59.70;24.60;;;;;;;9.57;58.15;99434.22;108058;1254;61200;-65
2023/12/20 00:56:11;;;;;;;53.70;22.90;;;;;;;9.61;57.95;99426.50;108072;1254;60297;-63
2023/12/20 00:58:39;;;;;;;40.20;19.50;;;;;;;9.61;57.91;99425.29;108081;1254;74255;-64
2023/12/20 01:01:06;;;;;;;38.00;18.30;;;;;;;9.64;57.78;99428.98;107978;1254;69249;-67
2023/12/20 01:03:32;;;;;;;34.90;18.00;;;;;;;9.61;57.82;99431.61;108056;1254;73270;-67
2023/12/20 01:06:04;;;;;;;39.10;17.90;;;;;;;9.54;57.97;99438.22;108063;1254;61205;-68
2023/12/20 01:08:31;;;;;;;52.80;22.60;;;;;;;9.46;58.23;99431.56;108015;1254;60375;-67
2023/12/20 01:11:05;;;;;;;;;;;;;;;9.55;58.06;99428.70;108027;1254;74301;-67
2023/12/20 01:13:32;;;;;;;54.50;23.70;;;;;;;9.53;57.89;99425.29;107994;1255;70574;-68
2023/12/20 01:15:59;;;;;;;67.80;26.80;;;;;;;9.57;57.74;99424.23;108007;1259;72607;-67
2023/12/20 01:18:26;;;;;;;68.80;26.20;;;;;;;9.57;57.76;99422.66;108027;1254;61288;-66
2023/12/20 01:20:53;;;;;;;68.20;25.80;;;;;;;9.57;57.72;99420.55;108014;1254;60310;-69
2023/12/20 01:23:19;;;;;;;46.10;21.70;;;;;;;9.54;57.78;99419.29;108013;1254;74328;-68
2023/12/20 01:25:46;;;;;;;38.20;18.20;;;;;;;9.51;57.82;99417.14;108003;1259;70821;-67
2023/12/20 01:28:12;;;;;;;33.50;16.90;;;;;;;9.60;57.69;99413.78;107964;1258;73254;-67
2023/12/20 01:30:39;;;;;;;36.90;17.70;;;;;;;9.61;57.51;99409.69;107965;1253;60462;-68
2023/12/20 01:33:06;;;;;;;37.40;17.60;;;;;;;9.56;57.03;99410.09;108020;1254;60338;-68
2023/12/20 01:35:33;;;;;;;43.70;18.90;;;;;;;9.64;56.81;99408.84;108016;1254;73718;-67
2023/12/20 01:37:59;;;;;;;50.40;21.90;;;;;;;9.62;56.72;99406.30;108019;1254;68023;-62
2023/12/20 01:40:26;;;;;;;54.40;22.40;;;;;;;9.59;56.60;99404.52;108019;1259;73061;-66
2023/12/20 01:43:06;;;;;;;51.20;22.00;;;;;;;9.39;56.81;99398.19;108066;1255;61013;-66
2023/12/20 01:45:33;;;;;;;53.10;21.40;;;;;;;9.45;56.57;99393.38;108055;1257;60418;-67
2023/12/20 01:48:01;;;;;;;60.20;23.30;;;;;;;9.57;56.21;99386.39;108019;1254;60443;-68
2023/12/20 01:50:28;;;;;;;54.00;21.90;;;;;;;9.70;55.90;99382.28;107947;1254;70254;-67
2023/12/20 01:52:57;;;;;;;43.40;18.30;;;;;;;9.76;55.25;99382.17;107850;1255;72668;-68
2023/12/20 01:55:24;;;;;;;24.70;13.10;;;;;;;9.66;54.32;99375.98;108072;1254;61198;-68
2023/12/20 01:57:55;;;;;;;24.90;12.70;;;;;;;9.80;53.24;99372.18;108087;1254;60271;-68
2023/12/20 02:00:23;;;;;;;22.40;10.30;;;;;;;10.02;52.52;99364.88;107981;1253;73932;-68
2023/12/20 02:02:50;;;;;;;18.60;9.90;;;;;;;10.16;52.00;99361.91;107943;1254;70101;-67
2023/12/20 02:05:17;;;;;;;20.60;9.50;;;;;;;10.35;50.64;99357.85;108053;1255;73121;-67
2023/12/20 02:07:46;;;;;;;16.20;9.10;;;;;;;10.63;50.13;99355.09;107884;1260;61178;-68
2023/12/20 02:10:13;;;;;;;18.20;8.80;;;;;;;10.72;49.12;99349.41;108123;1254;60623;-67
2023/12/20 02:12:40;;;;;;;18.70;8.40;;;;;;;10.85;48.38;99346.48;108078;1254;73843;-66
2023/12/20 02:15:08;;;;;;;17.20;8.00;;;;;;;11.04;48.35;99343.55;108114;1254;68806;-69
2023/12/20 02:17:35;;;;;;;15.60;8.20;;;;;;;11.28;47.37;99337.95;107928;1254;73297;-66
2023/12/20 02:20:02;;;;;;;16.20;7.10;;;;;;;11.33;47.34;99340.16;108119;1254;61055;-68
2023/12/20 02:22:29;;;;;;;21.70;8.80;;;;;;;11.33;46.65;99336.41;108135;1254;60427;-65
2023/12/20 02:24:58;;;;;;;14.60;7.40;;;;;;;11.46;46.35;99336.60;108135;1257;73253;-68
2023/12/20 02:27:24;;;;;;;13.50;7.60;;;;;;;11.53;46.46;99333.83;108170;1254;69089;-68
2023/12/20 02:29:51;;;;;;;14.60;7.70;;;;;;;11.43;45.88;99339.62;108040;1254;72763;-69
2023/12/20 02:32:17;;;;;;;13.30;7.50;;;;;;;11.51;46.11;99343.73;107993;1254;61241;-68
2023/12/20 02:34:44;;;;;;;15.30;7.80;;;;;;;11.54;46.11;99339.00;107901;1254;60206;-68
2023/12/20 02:37:10;;;;;;;14.60;7.60;;;;;;;11.54;46.08;99344.50;107982;1259;74137;-68
2023/12/20 02:39:37;;;;;;;14.70;7.10;;;;;;;11.48;45.81;99340.73;107968;1254;70370;-67
2023/12/20 02:42:04;;;;;;;14.30;8.00;;;;;;;11.44;45.64;99339.73;107921;1254;71543;-67
2023/12/20 02:44:31;;;;;;;16.20;7.70;;;;;;;11.49;45.56;99331.35;107984;1254;60860;-67
2023/12/20 02:46:58;;;;;;;17.00;7.90;;;;;;;11.60;45.86;99329.73;107989;1254;60332;-66
2023/12/20 02:49:25;;;;;;;15.00;7.70;;;;;;;11.63;45.36;99326.92;108011;1254;73354;-66
2023/12/20 02:51:52;;;;;;;15.80;8.00;;;;;;;11.54;45.43;99335.11;108080;1254;69389;-68
2023/12/20 02:54:18;;;;;;;16.80;9.00;;;;;;;11.47;45.66;99327.95;108028;1254;60356;-67
2023/12/20 02:56:45;;;;;;;16.70;7.60;;;;;;;11.43;45.71;99319.73;107993;1254;59180;-68
2023/12/20 02:59:11;;;;;;;13.60;7.20;;;;;;;11.56;45.68;99326.08;107985;1254;60296;-67
2023/12/20 03:01:43;;;;;;;17.40;8.50;;;;;;;11.51;45.36;99325.11;108036;1258;74308;-67
2023/12/20 03:04:10;;;;;;;15.50;8.00;;;;;;;11.58;45.64;99313.86;108044;1254;71002;-68
2023/12/20 03:06:37;;;;;;;17.10;8.00;;;;;;;11.47;45.53;99310.58;108040;1254;72489;-69
2023/12/20 03:09:04;;;;;;;13.70;7.40;;;;;;;11.35;45.48;99305.92;107989;1254;60287;-67
2023/12/20 03:11:31;;;;;;;15.30;7.50;;;;;;;11.45;45.88;99303.09;108030;1254;60162;-67
2023/12/20 03:13:58;;;;;;;16.10;8.20;;;;;;;11.41;45.77;99302.25;108020;1254;73529;-67
2023/12/20 03:16:25;;;;;;;13.90;7.20;;;;;;;11.37;45.61;99295.81;108106;1254;70099;-68
2023/12/20 03:18:52;;;;;;;14.50;7.40;;;;;;;11.46;45.69;99293.20;108009;1254;73380;-67
2023/12/20 03:21:19;;;;;;;14.50;7.70;;;;;;;11.41;45.63;99294.54;108010;1254;61105;-68
2023/12/20 03:23:46;;;;;;;14.40;8.10;;;;;;;11.37;45.91;99301.08;107964;1254;60335;-69
2023/12/20 03:26:13;;;;;;;15.90;8.10;;;;;;;11.36;45.97;99305.02;108031;1259;73636;-69
2023/12/20 03:28:39;;;;;;;13.90;7.70;;;;;;;11.21;45.78;99297.84;108126;1254;70153;-67
2023/12/20 03:31:06;;;;;;;14.80;7.50;;;;;;;11.23;46.10;99299.38;108018;1254;73453;-69
2023/12/20 03:33:33;;;;;;;15.20;7.70;;;;;;;11.18;45.88;99290.86;108086;1254;61758;-68
2023/12/20 03:36:00;;;;;;;15.60;7.90;;;;;;;11.35;46.02;99293.81;108035;1253;60206;-68
2023/12/20 03:38:26;;;;;;;16.70;8.30;;;;;;;11.30;45.92;99294.60;107989;1257;60344;-68
2023/12/20 03:40:53;;;;;;;16.80;7.70;;;;;;;11.18;45.91;99295.06;108048;1254;69353;-67
2023/12/20 03:43:21;;;;;;;17.20;8.10;;;;;;;11.23;46.20;99300.95;108024;1254;73497;-63
2023/12/20 03:45:48;;;;;;;17.10;8.10;;;;;;;11.29;45.92;99302.55;107990;1254;61087;-64
2023/12/20 03:48:15;;;;;;;16.90;8.00;;;;;;;11.38;46.02;99299.62;108030;1254;60450;-65
2023/12/20 03:50:42;;;;;;;14.40;8.10;;;;;;;11.34;45.89;99298.23;108029;1253;74457;-68
2023/12/20 03:53:08;;;;;;;14.40;7.60;;;;;;;11.23;46.00;99306.23;107994;1254;60411;-69
2023/12/20 03:55:35;;;;;;;14.10;7.30;;;;;;;11.20;46.17;99304.77;108002;1254;72485;-67
2023/12/20 03:58:02;;;;;;;15.20;8.20;;;;;;;11.14;46.14;99303.20;108040;1254;61198;-68
2023/12/20 04:00:33;;;;;;;15.80;7.50;;;;;;;11.08;46.34;99300.86;108088;1253;60364;-69
2023/12/20 04:03:00;;;;;;;16.80;8.30;;;;;;;10.99;46.47;99293.60;108067;1257;72661;-67
2023/12/20 04:05:26;;;;;;;15.80;8.20;;;;;;;11.12;46.24;99301.33;108074;1254;70920;-68
2023/12/20 04:07:53;;;;;;;15.20;8.50;;;;;;;11.14;46.33;99303.52;108108;1254;73114;-67
2023/12/20 04:10:20;;;;;;;17.80;8.80;;;;;;;10.97;46.45;99304.61;108008;1254;60955;-67
2023/12/20 04:12:47;;;;;;;15.20;7.60;;;;;;;11.11;46.33;99304.20;108069;1254;60607;-66
2023/12/20 04:15:13;;;;;;;16.40;8.40;;;;;;;11.13;46.21;99306.75;107997;1253;73929;-67
2023/12/20 04:17:40;;;;;;;17.80;7.90;;;;;;;11.05;46.33;99305.38;108026;1254;70460;-68
2023/12/20 04:20:08;;;;;;;20.30;8.70;;;;;;;11.01;46.38;99310.00;108021;1254;72801;-68
2023/12/20 04:22:36;;;;;;;14.00;7.70;;;;;;;10.92;46.44;99316.43;107988;1254;61117;-69
2023/12/20 04:25:02;;;;;;;18.50;9.40;;;;;;;10.96;46.41;99313.93;107989;1254;60332;-68
2023/12/20 04:27:29;;;;;;;18.60;9.00;;;;;;;10.96;46.50;99320.45;108069;1253;74423;-68
2023/12/20 04:29:56;;;;;;;18.70;8.50;;;;;;;10.88;46.51;99319.98;108060;1254;70913;-68
2023/12/20 04:32:25;;;;;;;15.40;8.70;;;;;;;10.93;46.67;99320.77;108045;1254;72443;-69
2023/12/20 04:34:51;;;;;;;17.00;8.70;;;;;;;10.90;46.58;99321.48;108025;1259;61179;-67
2023/12/20 04:37:18;;;;;;;14.40;8.40;;;;;;;10.93;46.51;99317.77;107982;1254;60448;-68
2023/12/20 04:39:44;;;;;;;19.90;8.80;;;;;;;10.94;46.76;99315.79;107989;1254;72907;-68
2023/12/20 04:42:11;;;;;;;14.30;8.30;;;;;;;10.85;46.68;99316.98;108014;1254;69133;-68
2023/12/20 04:44:38;;;;;;;18.60;8.30;;;;;;;10.79;46.65;99320.79;107958;1254;60425;-67
2023/12/20 04:47:04;;;;;;;16.40;9.00;;;;;;;10.75;46.89;99327.15;108034;1254;60244;-67
2023/12/20 04:49:31;;;;;;;17.50;8.60;;;;;;;10.68;46.92;99328.18;107995;1254;60399;-67
2023/12/20 04:51:58;;;;;;;17.00;8.80;;;;;;;10.65;47.04;99323.05;107985;1254;71565;-68
2023/12/20 04:54:24;;;;;;;14.20;8.00;;;;;;;10.71;46.83;99314.86;107988;1254;70317;-68
2023/12/20 04:56:51;;;;;;;15.10;8.30;;;;;;;10.83;46.95;99315.52;107957;1254;60402;-67
2023/12/20 04:59:17;;;;;;;16.10;8.90;;;;;;;10.86;46.79;99309.57;107996;1259;60895;-68
2023/12/20 05:01:44;;;;;;;16.30;8.90;;;;;;;10.81;46.69;99309.27;108004;1254;60306;-67
2023/12/20 05:04:11;;;;;;;16.60;8.90;;;;;;;10.82;46.97;99310.11;108017;1254;73656;-68
2023/12/20 05:06:38;;;;;;;15.20;8.90;;;;;;;10.76;46.87;99310.22;108045;1254;70643;-66
2023/12/20 05:09:04;;;;;;;15.30;8.70;;;;;;;10.73;47.00;99306.17;107987;1254;72601;-67
2023/12/20 05:11:31;;;;;;;16.90;8.40;;;;;;;10.76;47.04;99305.86;108033;1254;60963;-66
2023/12/20 05:13:58;;;;;;;15.80;8.70;;;;;;;10.73;46.98;99311.27;108032;1254;60377;-65
2023/12/20 05:16:24;;;;;;;18.10;9.40;;;;;;;10.71;47.08;99311.89;108008;1254;74479;-68
2023/12/20 05:18:52;;;;;;;15.50;8.90;;;;;;;10.66;47.12;99310.89;108029;1254;69034;-67
2023/12/20 05:21:19;;;;;;;16.60;8.30;;;;;;;10.63;47.29;99314.92;108028;1254;71857;-68
2023/12/20 05:23:51;;;;;;;17.10;9.10;;;;;;;10.59;47.49;99305.64;107965;1254;61065;-68
2023/12/20 05:26:17;;;;;;;19.20;8.20;;;;;;;10.51;47.63;99305.00;107993;1254;60334;-67
2023/12/20 05:28:44;;;;;;;16.90;9.10;;;;;;;10.53;47.50;99310.00;108026;1254;74400;-68
2023/12/20 05:31:13;;;;;;;18.60;8.60;;;;;;;10.51;47.70;99309.02;107995;1254;70127;-68
2023/12/20 05:33:40;;;;;;;16.70;8.80;;;;;;;10.39;47.60;99298.23;108034;1254;71469;-66
2023/12/20 05:36:11;;;;;;;18.60;9.10;;;;;;;10.62;47.59;99300.41;107971;1257;60990;-67
2023/12/20 05:38:37;;;;;;;18.40;9.30;;;;;;;10.60;47.63;99302.08;108040;1254;60563;-68
2023/12/20 05:41:04;;;;;;;15.90;8.70;;;;;;;10.50;47.68;99307.85;108087;1254;74370;-68
2023/12/20 05:43:32;;;;;;;14.90;8.50;;;;;;;10.52;47.84;99313.55;108086;1254;70265;-67
2023/12/20 05:45:59;;;;;;;16.10;8.40;;;;;;;10.42;47.72;99313.70;108062;1254;71245;-68
2023/12/20 05:48:27;;;;;;;15.10;9.10;;;;;;;10.61;47.66;99309.59;108014;1254;61073;-68
2023/12/20 05:50:54;;;;;;;16.50;8.50;;;;;;;10.62;47.61;99313.22;108121;1254;61426;-66
2023/12/20 05:53:20;;;;;;;19.50;8.80;;;;;;;10.59;47.47;99315.81;108077;1254;60325;-67
2023/12/20 05:55:48;;;;;;;18.30;8.80;;;;;;;10.56;47.33;99314.05;108047;1254;70506;-68
2023/12/20 05:58:14;;;;;;;16.90;8.60;;;;;;;10.51;47.33;99316.39;108044;1253;72461;-67
2023/12/20 06:00:41;;;;;;;17.70;9.10;;;;;;;10.48;47.46;99314.08;107945;1254;60937;-68
2023/12/20 06:03:08;;;;;;;16.80;8.90;;;;;;;10.55;47.53;99313.05;108009;1254;60341;-67
2023/12/20 06:05:36;;;;;;;18.00;9.00;;;;;;;10.55;47.27;99317.45;108039;1254;60198;-68
2023/12/20 06:08:04;;;;;;;20.50;9.80;;;;;;;10.56;47.02;99319.64;108073;1254;70071;-67
2023/12/20 06:10:30;;;;;;;15.00;8.80;;;;;;;10.50;47.11;99326.80;108096;1253;72589;-67
2023/12/20 06:12:58;;;;;;;22.60;9.70;;;;;;;10.66;47.06;99326.34;108037;1254;61068;-68
2023/12/20 06:15:25;;;;;;;17.60;9.40;;;;;;;10.64;47.09;99327.70;108008;1254;58897;-68
2023/12/20 06:17:53;;;;;;;15.80;9.10;;;;;;;10.52;47.11;99328.98;108006;1254;73680;-67
2023/12/20 06:20:21;;;;;;;16.80;9.10;;;;;;;10.43;47.28;99330.50;108143;1253;70456;-68
2023/12/20 06:22:49;;;;;;;16.30;8.60;;;;;;;10.37;47.41;99326.75;108046;1253;73350;-68
2023/12/20 06:25:18;;;;;;;20.40;10.40;;;;;;;10.45;47.14;99326.69;108045;1253;60896;-69
2023/12/20 06:27:45;;;;;;;18.00;8.70;;;;;;;10.55;47.21;99325.83;108118;1254;60588;-68
2023/12/20 06:30:12;;;;;;;19.70;9.10;;;;;;;10.59;46.97;99323.53;108044;1254;73383;-66
2023/12/20 06:32:39;;;;;;;20.60;9.30;;;;;;;10.68;47.10;99322.75;108046;1254;70335;-68
2023/12/20 06:35:07;;;;;;;16.10;8.70;;;;;;;10.63;47.21;99317.89;108038;1254;72620;-67
2023/12/20 06:37:35;;;;;;;17.70;9.50;;;;;;;10.69;47.01;99318.85;108121;1254;61147;-67
2023/12/20 06:40:04;;;;;;;18.00;9.30;;;;;;;10.78;46.91;99310.29;108048;1254;60371;-68
2023/12/20 06:42:32;;;;;;;14.20;8.30;;;;;;;10.81;46.70;99312.29;108106;1253;73799;-68
2023/12/20 06:45:10;;;;;;;16.60;8.80;;;;;;;10.84;46.65;99309.31;108047;1253;70943;-68
2023/12/20 06:47:36;;;;;;;19.00;8.80;;;;;;;10.88;46.76;99307.14;108023;1254;72713;-68
2023/12/20 06:50:03;;;;;;;17.30;9.20;;;;;;;10.89;46.51;99307.96;108025;1253;60508;-68
2023/12/20 06:52:30;;;;;;;15.50;8.60;;;;;;;11.00;46.48;99309.36;108064;1253;60454;-65
2023/12/20 06:54:57;;;;;;;17.60;8.60;;;;;;;11.06;46.29;99308.16;108114;1253;73621;-68
2023/12/20 06:57:25;;;;;;;16.70;8.50;;;;;;;11.03;46.10;99310.77;108092;1253;71011;-69
2023/12/20 06:59:53;;;;;;;14.80;8.40;;;;;;;11.03;46.06;99317.25;108059;1253;72359;-68
2023/12/20 07:02:22;;;;;;;17.00;8.90;;;;;;;11.18;46.07;99319.11;108112;1253;62017;-68
2023/12/20 07:04:51;;;;;;;21.30;8.80;;;;;;;11.15;46.00;99318.05;108046;1253;60439;-69
2023/12/20 07:07:18;;;;;;;16.20;8.80;;;;;;;11.25;46.13;99320.17;108042;1253;72326;-68
2023/12/20 07:09:45;;;;;;;17.60;9.70;;;;;;;11.25;46.22;99328.64;108084;1257;70707;-68
2023/12/20 07:12:11;;;;;;;16.70;8.70;;;;;;;11.39;46.21;99330.66;108058;1253;72688;-68
2023/12/20 07:14:38;;;;;;;15.90;8.50;;;;;;;11.54;46.32;99326.20;108088;1253;61063;-67
2023/12/20 07:17:11;;;;;;;18.30;9.10;;;;;;;11.80;46.17;99324.27;108131;1254;60332;-67
2023/12/20 07:19:38;;;;;;;15.20;8.10;;;;;;;11.97;46.01;99319.30;108120;1253;71488;-69
2023/12/20 07:22:07;;;;;;;17.80;9.30;;;;;;;11.87;45.60;99320.55;108151;1253;70068;-67
2023/12/20 07:24:33;;;;;;;18.30;8.80;;;;;;;12.08;45.43;99320.30;108046;1254;72343;-68
2023/12/20 07:27:01;;;;;;;19.50;9.40;;;;;;;12.18;45.32;99317.06;108060;1254;61061;-70
2023/12/20 07:29:29;;;;;;;15.90;8.80;;;;;;;12.13;44.98;99317.32;108033;1253;60391;-67
2023/12/20 07:31:55;;;;;;;18.00;9.90;;;;;;;12.27;44.76;99320.77;108304;1253;74427;-70
2023/12/20 07:34:22;;;;;;;18.10;8.80;;;;;;;12.52;44.92;99309.86;108169;1254;70287;-69
2023/12/20 07:36:50;;;;;;;18.30;10.00;;;;;;;12.64;44.52;99306.18;108132;1253;72683;-69
2023/12/20 07:39:18;;;;;;;19.50;8.90;;;;;;;12.78;44.07;99304.97;108147;1253;60197;-69
2023/12/20 07:41:45;;;;;;;16.90;8.60;;;;;;;12.75;43.56;99303.03;108211;1253;60418;-69
2023/12/20 07:44:13;;;;;;;17.60;9.00;;;;;;;13.34;43.38;99306.16;107966;1253;414475;-68
2023/12/20 07:48:07;;;;;;;16.30;8.40;;;;;;;13.30;44.48;99293.48;105314;1285;600331;-69
2023/12/20 07:50:34;;;;;;;15.30;8.40;;;;;;;14.47;41.72;99284.35;107818;1257;59143;-70
2023/12/20 07:53:03;;;;;;;17.40;9.30;;;;;;;15.10;40.43;99274.84;107914;1254;59174;-70
2023/12/20 07:55:31;;;;;;;16.70;8.80;;;;;;;15.58;39.72;99276.27;108055;1254;72221;-68
2023/12/20 07:57:59;;;;;;;13.80;7.60;;;;;;;15.70;38.79;99276.27;108020;1253;70582;-70
2023/12/20 08:00:29;;;;;;;18.10;8.70;;;;;;;15.95;38.03;99280.11;107990;1254;71382;-70
2023/12/20 08:02:58;;;;;;;14.60;7.50;;;;;;;16.48;37.85;99276.41;108142;1251;126204;-70
2023/12/20 08:05:25;;;;;;;15.10;8.70;;;;;;;16.46;37.26;99270.02;108245;1251;59199;-69
2023/12/20 08:07:53;;;;;;;15.80;8.20;;;;;;;16.41;37.26;99266.48;108205;1251;72236;-68
2023/12/20 08:10:21;;;;;;;15.60;8.40;;;;;;;16.17;37.30;99266.88;108204;1251;69611;-69
2023/12/20 08:12:49;;;;;;;15.50;8.30;;;;;;;15.85;38.18;99271.69;108194;1254;74890;-69
2023/12/20 08:15:16;;;;;;;18.80;8.50;;;;;;;15.62;38.63;99275.44;108247;1256;60127;-70
2023/12/20 08:17:44;;;;;;;13.40;8.20;;;;;;;15.15;39.75;99284.75;108244;1251;59628;-70
2023/12/20 08:20:12;;;;;;;17.60;8.60;;;;;;;14.86;40.31;99286.00;108233;1251;71850;-69
2023/12/20 08:22:46;;;;;;;19.10;8.10;;;;;;;14.63;40.78;99284.54;108237;1251;70744;-69
2023/12/20 08:25:15;;;;;;;16.50;8.30;;;;;;;14.45;41.38;99279.71;108289;1251;72699;-69
2023/12/20 08:27:43;;;;;;;17.60;8.50;;;;;;;14.81;41.16;99267.81;108287;1251;60101;-68
2023/12/20 08:30:12;;;;;;;20.10;9.20;;;;;;;15.00;40.93;99257.45;108190;1256;59680;-69
2023/12/20 08:32:40;;;;;;;14.20;7.80;;;;;;;15.39;40.76;99244.28;108045;1253;73471;-70
2023/12/20 08:35:08;;;;;;;15.30;8.70;;;;;;;15.74;40.03;99234.91;108076;1253;68754;-67
2023/12/20 08:37:36;;;;;;;16.60;8.50;;;;;;;15.88;39.73;99233.38;108054;1253;74561;-68
2023/12/20 08:40:05;;;;;;;14.10;7.40;;;;;;;15.85;39.70;99240.15;108173;1254;59746;-69
2023/12/20 08:42:33;;;;;;;14.60;7.50;;;;;;;15.78;40.23;99239.76;108157;1253;60056;-69
2023/12/20 08:45:00;;;;;;;14.00;7.60;;;;;;;16.00;40.27;99232.37;108171;1253;72149;-69
2023/12/20 08:47:29;;;;;;;14.70;7.20;;;;;;;16.61;39.57;99224.75;108190;1256;70416;-70
2023/12/20 08:49:59;;;;;;;12.40;6.50;;;;;;;17.23;38.73;99226.70;108168;1253;72450;-69
2023/12/20 08:52:29;;;;;;;12.30;6.70;;;;;;;17.99;37.70;99223.60;108179;1253;61696;-71
2023/12/20 08:54:56;;;;;;;11.90;7.00;;;;;;;18.66;36.63;99226.45;108139;1253;60617;-69
2023/12/20 08:57:25;;;;;;;13.10;6.70;;;;;;;19.28;35.93;99219.37;108023;1254;72228;-70
2023/12/20 08:59:52;;;;;;;15.80;6.80;;;;;;;19.78;34.69;99219.71;108120;1253;69960;-69
2023/12/20 09:02:22;;;;;;;12.30;6.90;;;;;;;20.15;33.77;99209.83;108079;1253;71425;-71
2023/12/20 09:04:49;;;;;;;13.40;7.40;;;;;;;20.31;33.23;99205.30;108158;1253;62579;-70
2023/12/20 09:07:28;;;;;;;12.60;7.20;;;;;;;20.26;32.65;99198.30;108142;1253;61478;-71
2023/12/20 09:09:55;;;;;;;16.00;8.10;;;;;;;20.04;33.16;99203.36;108113;1253;73196;-69
2023/12/20 09:12:23;;;;;;;16.20;8.50;;;;;;;19.94;33.14;99202.58;108119;1257;69308;-71
2023/12/20 09:14:51;;;;;;;17.90;8.40;;;;;;;19.73;33.35;99201.19;108119;1253;72777;-68
2023/12/20 09:17:18;;;;;;;14.70;8.60;;;;;;;19.65;33.46;99202.52;108140;1253;60280;-70
2023/12/20 09:19:46;;;;;;;19.10;8.60;;;;;;;19.55;33.29;99203.80;108091;1254;59547;-70
2023/12/20 09:22:14;;;;;;;18.90;9.20;;;;;;;19.26;33.69;99204.55;108115;1254;70636;-69
2023/12/20 09:24:41;;;;;;;19.30;9.70;;;;;;;18.89;33.61;99207.05;108086;1253;69463;-68
2023/12/20 09:27:10;;;;;;;14.30;8.50;;;;;;;18.62;33.85;99198.30;108162;1252;72553;-68
2023/12/20 09:29:37;;;;;;;15.60;8.60;;;;;;;18.62;33.99;99194.58;108071;1253;61345;-69
2023/12/20 09:32:05;;;;;;;14.60;8.70;;;;;;;19.15;33.52;99192.35;108089;1257;60226;-70
2023/12/20 09:34:33;;;;;;;20.30;9.10;;;;;;;19.19;32.91;99182.83;108088;1253;71778;-68
2023/12/20 09:37:01;;;;;;;14.60;8.70;;;;;;;19.35;32.88;99179.95;108126;1253;72682;-69
2023/12/20 09:39:28;;;;;;;15.60;8.20;;;;;;;19.49;32.15;99174.03;108090;1253;70611;-69
2023/12/20 09:42:04;;;;;;;16.60;8.70;;;;;;;19.24;31.90;99181.55;108066;1252;59676;-69
2023/12/20 09:44:32;;;;;;;17.50;8.10;;;;;;;19.08;31.88;99188.36;108045;1253;59667;-70
2023/12/20 09:47:02;;;;;;;19.80;8.70;;;;;;;19.30;31.33;99191.02;107965;1257;73804;-69
2023/12/20 09:49:30;;;;;;;20.00;9.30;;;;;;;19.32;30.96;99189.61;108077;1253;72054;-71
2023/12/20 09:51:58;;;;;;;17.30;8.50;;;;;;;19.87;30.18;99185.09;108026;1253;71778;-70
2023/12/20 09:54:25;;;;;;;15.50;8.40;;;;;;;20.13;29.24;99187.91;108018;1253;60070;-70
2023/12/20 09:56:53;;;;;;;14.80;8.30;;;;;;;20.54;28.46;99193.38;107820;1253;60203;-71
2023/12/20 09:59:21;;;;;;;16.20;8.20;;;;;;;20.82;27.83;99186.52;107993;1253;73142;-70
2023/12/20 10:01:54;;;;;;;13.70;7.80;;;;;;;21.05;27.33;99186.65;108060;1252;69990;-68
2023/12/20 10:04:25;;;;;;;15.10;8.00;;;;;;;21.39;27.01;99188.23;108008;1252;73779;-70
2023/12/20 10:06:57;;;;;;;15.60;7.70;;;;;;;21.15;26.23;99192.14;107967;1253;60173;-70
2023/12/20 10:09:25;;;;;;;12.50;7.60;;;;;;;21.21;26.18;99193.72;107824;1254;60186;-70
2023/12/20 10:11:54;;;;;;;13.30;7.90;;;;;;;21.57;25.88;99186.62;107991;1253;71905;-70
2023/12/20 10:14:23;;;;;;;17.40;7.90;;;;;;;22.10;25.62;99189.48;108015;1252;68759;-70
2023/12/20 10:16:50;;;;;;;13.40;7.50;;;;;;;22.41;24.47;99181.22;107974;1254;72541;-69
2023/12/20 10:19:19;;;;;;;12.70;7.30;;;;;;;22.73;24.72;99181.11;107973;1253;61571;-70
2023/12/20 10:21:47;;;;;;;12.70;7.50;;;;;;;22.90;23.84;99183.02;107915;1253;60110;-69
2023/12/20 10:24:18;;;;;;;13.80;7.40;;;;;;;22.91;23.87;99186.15;108014;1253;72097;-67
2023/12/20 10:26:45;;;;;;;;;;;;;;;22.84;23.70;99187.52;108053;1253;69017;-70
2023/12/20 10:29:13;;;;;;;16.40;7.40;;;;;;;22.51;23.58;99179.11;107996;1254;73163;-70
2023/12/20 10:31:42;;;;;;;13.80;7.80;;;;;;;22.43;24.15;99176.48;107970;1253;59466;-68
2023/12/20 10:34:10;;;;;;;14.70;7.60;;;;;;;22.45;24.04;99173.61;108000;1253;59364;-69
2023/12/20 10:36:38;;;;;;;13.40;7.50;;;;;;;22.57;23.60;99171.36;108048;1253;73592;-70
2023/12/20 10:39:05;;;;;;;15.70;8.20;;;;;;;22.51;23.75;99168.38;108021;1253;69478;-69
2023/12/20 10:41:35;;;;;;;14.20;7.50;;;;;;;22.02;24.09;99168.11;107905;1254;71958;-69
2023/12/20 10:44:04;;;;;;;14.30;7.80;;;;;;;22.31;24.47;99166.64;108002;1254;59154;-70
2023/12/20 10:46:32;;;;;;;14.00;7.10;;;;;;;22.55;24.16;99159.96;108038;1253;61948;-69
2023/12/20 10:49:03;;;;;;;12.40;7.10;;;;;;;22.40;24.37;99161.45;107956;1253;72705;-70
2023/12/20 10:51:31;;;;;;;;;;;;;;;22.40;24.62;99163.08;107835;1253;70314;-70
2023/12/20 10:53:59;;;;;;;11.50;6.40;;;;;;;22.71;24.52;99160.00;107993;1253;72667;-70
2023/12/20 10:56:26;;;;;;;15.80;7.50;;;;;;;22.89;24.11;99158.36;108043;1253;60232;-69
2023/12/20 10:58:54;;;;;;;12.30;6.80;;;;;;;22.09;24.85;99158.99;107852;1253;62104;-67
2023/12/20 11:01:21;;;;;;;13.40;6.90;;;;;;;21.49;25.53;99151.89;108076;1253;73180;-69
2023/12/20 11:03:51;;;;;;;13.40;6.80;;;;;;;21.48;25.77;99150.02;107891;1253;68639;-69
2023/12/20 11:06:26;;;;;;;11.60;6.50;;;;;;;21.21;25.95;99154.36;107939;1253;72807;-69
2023/12/20 11:09:35;;;;;;;10.40;6.50;;;;;;;21.40;25.74;99149.38;108051;1253;59711;-69
2023/12/20 11:12:05;;;;;;;12.00;7.40;;;;;;;21.71;25.26;99150.33;107692;1262;59476;-69
2023/12/20 11:14:52;;;;;;;15.70;6.80;;;;;;;21.85;24.96;99141.58;108048;1253;73730;-70
2023/12/20 11:17:19;;;;;;;14.00;7.50;;;;;;;22.02;24.64;99133.09;108030;1257;68755;-70
2023/12/20 11:19:53;;;;;;;12.20;6.30;;;;;;;22.27;24.69;99128.27;107930;1253;72781;-69
2023/12/20 11:22:21;;;;;;;13.40;7.20;;;;;;;22.36;24.29;99127.88;108038;1254;60220;-68